createdAt,value
2018-08-08T00:00:23.337Z,0.00
2018-08-08T00:01:23.321Z,0.00
2018-08-08T00:02:23.308Z,0.00
2018-08-08T00:03:23.298Z,0.00
2018-08-08T00:04:23.295Z,0.00
2018-08-08T00:05:23.287Z,0.00
2018-08-08T00:06:23.269Z,0.00
2018-08-08T00:07:23.254Z,0.00
2018-08-08T00:08:23.244Z,0.00
2018-08-08T00:09:23.231Z,0.00
2018-08-08T00:10:23.224Z,0.00
2018-08-08T00:11:23.212Z,0.00
2018-08-08T00:12:23.203Z,0.00
2018-08-08T00:13:23.186Z,0.00
2018-08-08T00:14:23.174Z,0.00
2018-08-08T00:15:23.164Z,0.00
2018-08-08T00:16:23.155Z,0.00
2018-08-08T00:17:23.142Z,0.00
2018-08-08T00:18:23.136Z,0.00
2018-08-08T00:19:23.120Z,0.00
2018-08-08T00:20:23.112Z,0.00
2018-08-08T00:21:23.091Z,0.00
2018-08-08T00:22:23.085Z,0.00
2018-08-08T00:23:23.078Z,0.00
2018-08-08T00:24:23.064Z,0.00
2018-08-08T00:25:23.055Z,0.00
2018-08-08T00:26:23.052Z,0.00
2018-08-08T00:27:23.026Z,0.00
2018-08-08T00:28:23.015Z,0.00
2018-08-08T00:29:23.004Z,0.00
2018-08-08T00:30:22.994Z,0.00
2018-08-08T00:31:22.982Z,0.00
2018-08-08T00:32:22.974Z,0.00
2018-08-08T00:33:22.965Z,0.00
2018-08-08T00:34:22.950Z,0.00
2018-08-08T00:35:22.934Z,0.00
2018-08-08T00:36:22.929Z,0.00
2018-08-08T00:37:22.914Z,0.00
2018-08-08T00:38:22.896Z,0.00
2018-08-08T00:39:22.893Z,0.00
2018-08-08T00:40:22.874Z,0.00
2018-08-08T00:41:22.864Z,0.00
2018-08-08T00:42:22.851Z,0.00
2018-08-08T00:43:22.841Z,0.00
2018-08-08T00:44:22.826Z,0.00
2018-08-08T00:45:22.822Z,0.00
2018-08-08T00:46:22.804Z,0.00
2018-08-08T00:47:22.791Z,0.00
2018-08-08T00:48:22.778Z,0.00
2018-08-08T00:49:22.779Z,0.00
2018-08-08T00:50:22.763Z,0.00
2018-08-08T00:51:22.749Z,0.00
2018-08-08T00:52:22.734Z,0.00
2018-08-08T00:53:22.721Z,0.00
2018-08-08T00:54:22.711Z,0.00
2018-08-08T00:55:22.702Z,0.00
2018-08-08T00:56:22.689Z,0.00
2018-08-08T00:57:22.673Z,0.00
2018-08-08T00:58:22.678Z,0.00
2018-08-08T00:59:22.657Z,0.00
2018-08-08T01:00:22.638Z,0.00
2018-08-08T01:01:22.628Z,0.00
2018-08-08T01:02:22.615Z,0.00
2018-08-08T01:03:22.606Z,0.00
2018-08-08T01:04:22.593Z,0.00
2018-08-08T01:05:22.593Z,0.00
2018-08-08T01:06:22.566Z,0.00
2018-08-08T01:07:22.587Z,0.00
2018-08-08T01:08:22.621Z,0.00
2018-08-08T01:09:22.531Z,0.00
2018-08-08T01:10:22.518Z,0.00
2018-08-08T01:11:22.510Z,0.00
2018-08-08T01:12:22.499Z,0.00
2018-08-08T01:13:22.491Z,0.00
2018-08-08T01:14:22.486Z,0.00
2018-08-08T01:15:22.470Z,0.00
2018-08-08T01:16:22.459Z,0.00
2018-08-08T01:17:22.442Z,0.00
2018-08-08T01:18:22.431Z,0.00
2018-08-08T01:19:22.409Z,0.00
2018-08-08T01:20:22.407Z,0.00
2018-08-08T01:21:22.395Z,0.00
2018-08-08T01:22:22.375Z,0.00
2018-08-08T01:23:22.375Z,0.00
2018-08-08T01:24:22.361Z,0.00
2018-08-08T01:25:22.347Z,0.00
2018-08-08T01:26:22.327Z,0.00
2018-08-08T01:27:22.317Z,0.00
2018-08-08T01:28:22.309Z,0.00
2018-08-08T01:29:22.292Z,0.00
2018-08-08T01:30:22.276Z,0.00
2018-08-08T01:31:22.273Z,0.00
2018-08-08T01:32:22.253Z,0.00
2018-08-08T01:33:22.247Z,0.00
2018-08-08T01:34:22.232Z,0.00
2018-08-08T01:35:22.219Z,0.00
2018-08-08T01:36:22.212Z,0.00
2018-08-08T01:37:22.193Z,0.00
2018-08-08T01:38:22.188Z,0.00
2018-08-08T01:39:22.173Z,0.00
2018-08-08T01:40:22.163Z,0.00
2018-08-08T01:41:22.144Z,0.00
2018-08-08T01:42:22.134Z,0.00
2018-08-08T01:43:22.124Z,0.00
2018-08-08T01:44:22.112Z,0.00
2018-08-08T01:45:22.128Z,0.00
2018-08-08T01:46:22.093Z,0.00
2018-08-08T01:47:22.081Z,0.00
2018-08-08T01:48:22.061Z,0.00
2018-08-08T01:49:22.058Z,0.00
2018-08-08T01:50:22.042Z,0.00
2018-08-08T01:51:22.029Z,0.00
2018-08-08T01:52:22.020Z,0.00
2018-08-08T01:53:22.005Z,0.00
2018-08-08T01:54:21.991Z,0.00
2018-08-08T01:55:21.984Z,0.00
2018-08-08T01:56:21.970Z,0.00
2018-08-08T01:57:21.957Z,0.00
2018-08-08T01:58:21.948Z,0.00
2018-08-08T01:59:21.929Z,0.00
2018-08-08T02:00:21.926Z,0.00
2018-08-08T02:01:21.909Z,0.00
2018-08-08T02:02:21.893Z,0.00
2018-08-08T02:03:21.890Z,0.00
2018-08-08T02:04:21.874Z,0.00
2018-08-08T02:05:21.861Z,0.00
2018-08-08T02:06:21.855Z,0.00
2018-08-08T02:07:21.842Z,0.00
2018-08-08T02:08:21.826Z,0.00
2018-08-08T02:09:21.816Z,0.00
2018-08-08T02:10:21.797Z,0.00
2018-08-08T02:11:21.791Z,0.00
2018-08-08T02:12:21.778Z,0.00
2018-08-08T02:13:21.765Z,0.00
2018-08-08T02:14:21.753Z,0.00
2018-08-08T02:15:21.743Z,0.00
2018-08-08T02:16:21.731Z,0.00
2018-08-08T02:17:21.723Z,0.00
2018-08-08T02:18:21.704Z,0.00
2018-08-08T02:19:21.695Z,0.00
2018-08-08T02:20:21.682Z,0.00
2018-08-08T02:21:21.669Z,0.00
2018-08-08T02:22:21.657Z,0.00
2018-08-08T02:23:21.649Z,0.00
2018-08-08T02:24:21.638Z,0.00
2018-08-08T02:25:21.631Z,0.00
2018-08-08T02:26:21.609Z,0.00
2018-08-08T02:27:21.616Z,0.00
2018-08-08T02:28:21.583Z,0.00
2018-08-08T02:29:21.573Z,0.00
2018-08-08T02:30:21.565Z,0.00
2018-08-08T02:31:21.551Z,0.00
2018-08-08T02:32:21.536Z,0.00
2018-08-08T02:33:21.529Z,0.00
2018-08-08T02:34:21.516Z,0.00
2018-08-08T02:35:22.023Z,0.00
2018-08-08T02:36:21.487Z,0.00
2018-08-08T02:37:21.527Z,0.00
2018-08-08T02:38:21.458Z,0.00
2018-08-08T02:39:21.452Z,0.00
2018-08-08T02:40:21.445Z,0.00
2018-08-08T02:41:21.423Z,0.00
2018-08-08T02:42:21.407Z,0.00
2018-08-08T02:43:21.404Z,0.00
2018-08-08T02:44:21.392Z,0.00
2018-08-08T02:45:21.377Z,0.00
2018-08-08T02:46:21.369Z,0.00
2018-08-08T02:47:21.355Z,0.00
2018-08-08T02:48:21.340Z,0.00
2018-08-08T02:49:21.324Z,0.00
2018-08-08T02:50:21.310Z,0.00
2018-08-08T02:51:21.304Z,0.00
2018-08-08T02:52:21.289Z,0.00
2018-08-08T02:53:21.275Z,0.00
2018-08-08T02:54:21.272Z,0.00
2018-08-08T02:55:21.269Z,0.00
2018-08-08T02:56:21.240Z,0.00
2018-08-08T02:57:21.227Z,0.00
2018-08-08T02:58:21.215Z,0.00
2018-08-08T02:59:21.208Z,0.00
2018-08-08T03:00:21.193Z,0.00
2018-08-08T03:01:21.179Z,0.00
2018-08-08T03:02:21.168Z,0.00
2018-08-08T03:03:21.159Z,0.00
2018-08-08T03:04:21.145Z,0.00
2018-08-08T03:05:21.130Z,0.00
2018-08-08T03:06:21.120Z,0.00
2018-08-08T03:07:21.111Z,0.00
2018-08-08T03:08:21.187Z,0.00
2018-08-08T03:09:21.078Z,0.00
2018-08-08T03:10:21.063Z,0.00
2018-08-08T03:11:21.053Z,0.00
2018-08-08T03:12:21.040Z,0.00
2018-08-08T03:13:21.033Z,0.00
2018-08-08T03:14:21.021Z,0.00
2018-08-08T03:15:21.002Z,0.00
2018-08-08T03:16:21.005Z,0.00
2018-08-08T03:17:20.986Z,0.00
2018-08-08T03:18:20.979Z,0.00
2018-08-08T03:19:20.964Z,0.00
2018-08-08T03:20:20.941Z,0.00
2018-08-08T03:21:20.928Z,0.00
2018-08-08T03:22:20.939Z,0.00
2018-08-08T03:23:20.906Z,0.00
2018-08-08T03:24:20.915Z,0.00
2018-08-08T03:25:20.884Z,0.00
2018-08-08T03:26:20.880Z,0.00
2018-08-08T03:27:20.858Z,0.00
2018-08-08T03:28:20.871Z,0.00
2018-08-08T03:29:20.839Z,0.00
2018-08-08T03:30:20.845Z,0.00
2018-08-08T03:31:20.813Z,0.00
2018-08-08T03:32:20.800Z,0.00
2018-08-08T03:33:20.794Z,0.00
2018-08-08T03:34:20.778Z,0.00
2018-08-08T03:35:20.768Z,0.00
2018-08-08T03:36:20.767Z,0.00
2018-08-08T03:37:20.740Z,0.00
2018-08-08T03:38:20.733Z,0.00
2018-08-08T03:39:20.717Z,0.00
2018-08-08T03:40:20.707Z,0.00
2018-08-08T03:41:20.698Z,0.00
2018-08-08T03:42:20.706Z,0.00
2018-08-08T03:43:20.672Z,0.00
2018-08-08T03:44:20.657Z,0.00
2018-08-08T03:45:20.645Z,0.00
2018-08-08T03:46:20.634Z,0.00
2018-08-08T03:47:20.625Z,0.00
2018-08-08T03:48:20.615Z,0.00
2018-08-08T03:49:20.603Z,0.00
2018-08-08T03:50:20.596Z,0.00
2018-08-08T03:51:20.583Z,0.00
2018-08-08T03:52:20.572Z,0.00
2018-08-08T03:53:20.648Z,0.00
2018-08-08T03:54:20.539Z,0.00
2018-08-08T03:55:20.529Z,5.63
2018-08-08T03:56:20.516Z,5.63
2018-08-08T03:57:20.510Z,5.63
2018-08-08T03:58:20.499Z,5.63
2018-08-08T03:59:20.487Z,11.25
2018-08-08T04:00:20.469Z,11.25
2018-08-08T04:01:20.456Z,11.25
2018-08-08T04:02:20.453Z,11.25
2018-08-08T04:03:20.440Z,11.25
2018-08-08T04:04:20.421Z,11.25
2018-08-08T04:05:20.416Z,11.25
2018-08-08T04:06:20.398Z,11.25
2018-08-08T04:07:20.392Z,11.25
2018-08-08T04:08:20.376Z,11.25
2018-08-08T04:09:20.398Z,11.25
2018-08-08T04:10:20.351Z,11.25
2018-08-08T04:11:20.347Z,11.25
2018-08-08T04:12:20.330Z,11.25
2018-08-08T04:13:20.319Z,11.25
2018-08-08T04:14:20.306Z,11.25
2018-08-08T04:15:20.293Z,11.25
2018-08-08T04:16:20.290Z,11.25
2018-08-08T04:17:20.271Z,16.88
2018-08-08T04:18:20.267Z,16.88
2018-08-08T04:19:20.255Z,16.88
2018-08-08T04:20:20.242Z,16.88
2018-08-08T04:21:20.229Z,16.88
2018-08-08T04:22:20.220Z,16.88
2018-08-08T04:23:20.207Z,22.50
2018-08-08T04:24:20.207Z,22.50
2018-08-08T04:25:20.181Z,22.50
2018-08-08T04:26:20.167Z,22.50
2018-08-08T04:27:20.161Z,22.50
2018-08-08T04:28:20.147Z,22.50
2018-08-08T04:29:20.142Z,22.50
2018-08-08T04:30:20.128Z,22.50
2018-08-08T04:31:20.116Z,22.50
2018-08-08T04:32:20.110Z,22.50
2018-08-08T04:33:20.100Z,28.13
2018-08-08T04:34:20.084Z,28.13
2018-08-08T04:35:20.078Z,28.13
2018-08-08T04:36:20.065Z,28.13
2018-08-08T04:37:20.058Z,28.13
2018-08-08T04:38:20.043Z,28.13
2018-08-08T04:39:20.035Z,28.13
2018-08-08T04:40:20.027Z,28.13
2018-08-08T04:41:20.014Z,28.13
2018-08-08T04:42:20.009Z,33.75
2018-08-08T04:43:20.004Z,33.75
2018-08-08T04:44:19.989Z,33.75
2018-08-08T04:45:19.973Z,39.38
2018-08-08T04:46:19.969Z,45.00
2018-08-08T04:47:19.960Z,45.00
2018-08-08T04:48:19.944Z,50.63
2018-08-08T04:49:19.937Z,50.63
2018-08-08T04:50:19.925Z,56.25
2018-08-08T04:51:19.915Z,61.88
2018-08-08T04:52:19.914Z,67.50
2018-08-08T04:53:19.896Z,73.13
2018-08-08T04:54:19.886Z,78.75
2018-08-08T04:55:19.884Z,84.38
2018-08-08T04:56:19.875Z,90.00
2018-08-08T04:57:19.858Z,95.63
2018-08-08T04:58:19.858Z,101.25
2018-08-08T04:59:19.839Z,106.88
2018-08-08T05:00:19.870Z,112.50
2018-08-08T05:01:19.819Z,112.50
2018-08-08T05:02:19.810Z,118.13
2018-08-08T05:03:19.804Z,118.13
2018-08-08T05:04:19.794Z,118.13
2018-08-08T05:05:19.781Z,123.75
2018-08-08T05:06:19.787Z,129.38
2018-08-08T05:07:19.764Z,129.38
2018-08-08T05:08:19.758Z,135.00
2018-08-08T05:09:19.745Z,140.63
2018-08-08T05:10:19.733Z,146.25
2018-08-08T05:11:19.726Z,151.88
2018-08-08T05:12:19.725Z,157.50
2018-08-08T05:13:19.710Z,157.50
2018-08-08T05:14:19.700Z,163.13
2018-08-08T05:15:19.694Z,168.75
2018-08-08T05:16:19.684Z,174.38
2018-08-08T05:17:19.668Z,180.00
2018-08-08T05:18:19.662Z,180.00
2018-08-08T05:19:19.659Z,185.63
2018-08-08T05:20:19.679Z,191.25
2018-08-08T05:21:19.633Z,196.88
2018-08-08T05:22:19.636Z,202.50
2018-08-08T05:23:19.621Z,208.13
2018-08-08T05:24:19.611Z,213.75
2018-08-08T05:25:19.604Z,213.75
2018-08-08T05:26:19.592Z,219.38
2018-08-08T05:27:19.585Z,225.00
2018-08-08T05:28:19.574Z,230.63
2018-08-08T05:29:19.559Z,230.63
2018-08-08T05:30:19.554Z,236.25
2018-08-08T05:31:19.539Z,241.88
2018-08-08T05:32:19.533Z,247.50
2018-08-08T05:33:19.520Z,253.13
2018-08-08T05:34:19.513Z,258.75
2018-08-08T05:35:19.507Z,258.75
2018-08-08T05:36:19.572Z,264.38
2018-08-08T05:37:19.489Z,264.38
2018-08-08T05:38:19.484Z,275.63
2018-08-08T05:39:19.465Z,281.25
2018-08-08T05:40:19.459Z,286.88
2018-08-08T05:41:19.475Z,298.13
2018-08-08T05:42:19.446Z,298.13
2018-08-08T05:43:19.437Z,303.75
2018-08-08T05:44:19.437Z,315.00
2018-08-08T05:45:19.418Z,320.63
2018-08-08T05:46:19.405Z,331.88
2018-08-08T05:47:19.392Z,337.50
2018-08-08T05:48:19.406Z,348.75
2018-08-08T05:49:19.403Z,365.63
2018-08-08T05:50:19.378Z,376.88
2018-08-08T05:51:19.360Z,393.75
2018-08-08T05:52:19.358Z,410.63
2018-08-08T05:53:19.347Z,427.50
2018-08-08T05:54:19.338Z,438.75
2018-08-08T05:55:19.328Z,455.63
2018-08-08T05:56:19.319Z,466.88
2018-08-08T05:57:19.312Z,478.13
2018-08-08T05:58:19.309Z,483.75
2018-08-08T05:59:19.356Z,483.75
2018-08-08T06:00:19.288Z,483.75
2018-08-08T06:01:19.281Z,495.00
2018-08-08T06:02:19.267Z,500.63
2018-08-08T06:03:19.284Z,506.25
2018-08-08T06:04:19.258Z,511.88
2018-08-08T06:05:19.242Z,511.88
2018-08-08T06:06:19.239Z,511.88
2018-08-08T06:07:19.226Z,511.88
2018-08-08T06:08:19.223Z,506.25
2018-08-08T06:09:19.210Z,495.00
2018-08-08T06:10:19.200Z,500.63
2018-08-08T06:11:19.197Z,478.13
2018-08-08T06:12:19.191Z,472.50
2018-08-08T06:13:19.178Z,461.25
2018-08-08T06:14:19.212Z,444.38
2018-08-08T06:15:19.167Z,427.50
2018-08-08T06:16:19.163Z,416.25
2018-08-08T06:17:19.152Z,405.00
2018-08-08T06:18:19.144Z,393.75
2018-08-08T06:19:19.133Z,382.50
2018-08-08T06:20:19.130Z,371.25
2018-08-08T06:21:19.118Z,371.25
2018-08-08T06:22:19.114Z,360.00
2018-08-08T06:23:19.104Z,354.38
2018-08-08T06:24:19.101Z,348.75
2018-08-08T06:25:19.091Z,343.13
2018-08-08T06:26:19.085Z,337.50
2018-08-08T06:27:19.094Z,331.88
2018-08-08T06:28:19.066Z,331.88
2018-08-08T06:29:19.053Z,326.25
2018-08-08T06:30:19.052Z,326.25
2018-08-08T06:31:19.043Z,320.63
2018-08-08T06:32:19.037Z,320.63
2018-08-08T06:33:19.021Z,320.63
2018-08-08T06:34:19.018Z,326.25
2018-08-08T06:35:19.008Z,326.25
2018-08-08T06:36:18.999Z,331.88
2018-08-08T06:37:18.994Z,326.25
2018-08-08T06:38:18.993Z,315.00
2018-08-08T06:39:18.981Z,309.38
2018-08-08T06:40:18.972Z,298.13
2018-08-08T06:41:18.957Z,292.50
2018-08-08T06:42:18.953Z,281.25
2018-08-08T06:43:18.946Z,275.63
2018-08-08T06:44:18.940Z,281.25
2018-08-08T06:45:18.924Z,281.25
2018-08-08T06:46:18.921Z,286.88
2018-08-08T06:47:18.909Z,292.50
2018-08-08T06:48:18.908Z,292.50
2018-08-08T06:49:18.892Z,298.13
2018-08-08T06:50:18.889Z,298.13
2018-08-08T06:51:18.883Z,303.75
2018-08-08T06:52:18.870Z,309.38
2018-08-08T06:53:18.858Z,298.13
2018-08-08T06:54:18.857Z,315.00
2018-08-08T06:55:18.844Z,309.38
2018-08-08T06:56:18.837Z,309.38
2018-08-08T06:57:18.827Z,315.00
2018-08-08T06:58:18.819Z,315.00
2018-08-08T06:59:18.814Z,309.38
2018-08-08T07:00:18.804Z,298.13
2018-08-08T07:01:18.795Z,275.63
2018-08-08T07:02:18.790Z,247.50
2018-08-08T07:03:18.775Z,208.13
2018-08-08T07:04:18.775Z,202.50
2018-08-08T07:05:18.756Z,202.50
2018-08-08T07:06:18.753Z,225.00
2018-08-08T07:07:18.743Z,225.00
2018-08-08T07:08:18.730Z,247.50
2018-08-08T07:09:18.727Z,253.13
2018-08-08T07:10:18.714Z,253.13
2018-08-08T07:11:18.714Z,253.13
2018-08-08T07:12:18.698Z,253.13
2018-08-08T07:13:18.724Z,253.13
2018-08-08T07:14:18.729Z,253.13
2018-08-08T07:15:18.680Z,264.38
2018-08-08T07:16:18.663Z,275.63
2018-08-08T07:17:18.657Z,292.50
2018-08-08T07:18:18.655Z,298.13
2018-08-08T07:19:18.638Z,309.38
2018-08-08T07:20:18.639Z,320.63
2018-08-08T07:21:18.641Z,331.88
2018-08-08T07:22:18.617Z,337.50
2018-08-08T07:23:18.606Z,343.13
2018-08-08T07:24:18.597Z,348.75
2018-08-08T07:25:18.615Z,298.13
2018-08-08T07:26:18.587Z,309.38
2018-08-08T07:27:18.582Z,331.88
2018-08-08T07:28:18.571Z,331.88
2018-08-08T07:29:18.558Z,343.13
2018-08-08T07:30:18.553Z,343.13
2018-08-08T07:31:18.546Z,348.75
2018-08-08T07:32:18.572Z,348.75
2018-08-08T07:33:18.533Z,348.75
2018-08-08T07:34:18.523Z,348.75
2018-08-08T07:35:18.518Z,371.25
2018-08-08T07:36:18.516Z,393.75
2018-08-08T07:37:18.504Z,416.25
2018-08-08T07:38:18.502Z,416.25
2018-08-08T07:39:18.495Z,405.00
2018-08-08T07:40:18.496Z,393.75
2018-08-08T07:41:18.486Z,371.25
2018-08-08T07:42:18.475Z,360.00
2018-08-08T07:43:18.475Z,348.75
2018-08-08T07:44:18.466Z,337.50
2018-08-08T07:45:18.466Z,354.38
2018-08-08T07:46:18.480Z,371.25
2018-08-08T07:47:18.447Z,388.13
2018-08-08T07:48:18.450Z,371.25
2018-08-08T07:49:18.458Z,444.38
2018-08-08T07:50:18.430Z,455.63
2018-08-08T07:51:18.478Z,489.38
2018-08-08T07:52:18.422Z,489.38
2018-08-08T07:53:18.414Z,585.00
2018-08-08T07:54:18.418Z,585.00
2018-08-08T07:55:18.416Z,607.50
2018-08-08T07:56:18.401Z,630.00
2018-08-08T07:57:18.395Z,635.63
2018-08-08T07:58:18.446Z,635.63
2018-08-08T07:59:18.398Z,601.88
2018-08-08T08:00:18.386Z,511.88
2018-08-08T08:01:18.383Z,483.75
2018-08-08T08:02:18.377Z,466.88
2018-08-08T08:03:18.368Z,450.00
2018-08-08T08:04:18.370Z,433.13
2018-08-08T08:05:18.367Z,433.13
2018-08-08T08:06:18.360Z,444.38
2018-08-08T08:07:18.351Z,472.50
2018-08-08T08:08:18.353Z,489.38
2018-08-08T08:09:18.342Z,500.63
2018-08-08T08:10:18.335Z,506.25
2018-08-08T08:11:18.332Z,500.63
2018-08-08T08:12:18.330Z,500.63
2018-08-08T08:13:18.329Z,495.00
2018-08-08T08:14:18.316Z,489.38
2018-08-08T08:15:18.316Z,472.50
2018-08-08T08:16:18.306Z,450.00
2018-08-08T08:17:18.300Z,455.63
2018-08-08T08:18:18.297Z,455.63
2018-08-08T08:19:18.294Z,444.38
2018-08-08T08:20:18.284Z,444.38
2018-08-08T08:21:18.284Z,438.75
2018-08-08T08:22:18.274Z,450.00
2018-08-08T08:23:18.347Z,472.50
2018-08-08T08:24:18.268Z,478.13
2018-08-08T08:25:18.255Z,506.25
2018-08-08T08:26:18.249Z,534.38
2018-08-08T08:27:18.258Z,551.25
2018-08-08T08:28:18.241Z,579.38
2018-08-08T08:29:18.236Z,573.75
2018-08-08T08:30:18.220Z,579.38
2018-08-08T08:31:18.224Z,607.50
2018-08-08T08:32:18.217Z,635.63
2018-08-08T08:33:18.204Z,663.75
2018-08-08T08:34:18.211Z,686.25
2018-08-08T08:35:18.197Z,691.88
2018-08-08T08:36:18.192Z,703.13
2018-08-08T08:37:18.191Z,736.88
2018-08-08T08:38:18.185Z,793.13
2018-08-08T08:39:18.170Z,826.88
2018-08-08T08:40:18.170Z,855.00
2018-08-08T08:41:18.163Z,933.75
2018-08-08T08:42:18.159Z,928.13
2018-08-08T08:43:18.150Z,928.13
2018-08-08T08:44:18.140Z,928.13
2018-08-08T08:45:18.141Z,911.25
2018-08-08T08:46:18.137Z,911.25
2018-08-08T08:47:18.122Z,933.75
2018-08-08T08:48:18.115Z,888.75
2018-08-08T08:49:18.109Z,826.88
2018-08-08T08:50:18.112Z,748.13
2018-08-08T08:51:18.103Z,703.13
2018-08-08T08:52:18.099Z,601.88
2018-08-08T08:53:18.084Z,590.63
2018-08-08T08:54:18.084Z,585.00
2018-08-08T08:55:18.082Z,556.88
2018-08-08T08:56:18.081Z,517.50
2018-08-08T08:57:18.068Z,472.50
2018-08-08T08:58:18.065Z,438.75
2018-08-08T08:59:18.061Z,416.25
2018-08-08T09:00:18.059Z,399.38
2018-08-08T09:01:18.049Z,388.13
2018-08-08T09:02:18.065Z,376.88
2018-08-08T09:03:18.042Z,371.25
2018-08-08T09:04:18.043Z,360.00
2018-08-08T09:05:18.033Z,354.38
2018-08-08T09:06:18.033Z,348.75
2018-08-08T09:07:18.024Z,343.13
2018-08-08T09:08:18.020Z,343.13
2018-08-08T09:09:18.013Z,337.50
2018-08-08T09:10:18.014Z,337.50
2018-08-08T09:11:18.009Z,337.50
2018-08-08T09:12:18.045Z,343.13
2018-08-08T09:13:17.997Z,343.13
2018-08-08T09:14:17.991Z,343.13
2018-08-08T09:15:17.992Z,343.13
2018-08-08T09:16:17.988Z,348.75
2018-08-08T09:17:17.976Z,360.00
2018-08-08T09:18:17.979Z,354.38
2018-08-08T09:19:17.973Z,360.00
2018-08-08T09:20:17.967Z,365.63
2018-08-08T09:21:17.960Z,360.00
2018-08-08T09:22:17.954Z,360.00
2018-08-08T09:23:17.957Z,365.63
2018-08-08T09:24:17.973Z,360.00
2018-08-08T09:25:17.940Z,371.25
2018-08-08T09:26:17.937Z,388.13
2018-08-08T09:27:17.938Z,399.38
2018-08-08T09:28:17.931Z,416.25
2018-08-08T09:29:17.931Z,433.13
2018-08-08T09:30:17.926Z,455.63
2018-08-08T09:31:17.915Z,444.38
2018-08-08T09:32:17.918Z,421.88
2018-08-08T09:33:17.905Z,405.00
2018-08-08T09:34:17.908Z,416.25
2018-08-08T09:35:17.901Z,421.88
2018-08-08T09:36:17.892Z,438.75
2018-08-08T09:37:17.893Z,444.38
2018-08-08T09:38:17.895Z,455.63
2018-08-08T09:39:17.880Z,472.50
2018-08-08T09:40:17.911Z,483.75
2018-08-08T09:41:17.874Z,495.00
2018-08-08T09:42:17.867Z,511.88
2018-08-08T09:43:17.865Z,528.75
2018-08-08T09:44:17.889Z,551.25
2018-08-08T09:45:17.854Z,590.63
2018-08-08T09:46:17.857Z,675.00
2018-08-08T09:47:17.849Z,804.38
2018-08-08T09:48:17.852Z,838.13
2018-08-08T09:49:17.845Z,725.63
2018-08-08T09:50:17.845Z,703.13
2018-08-08T09:51:17.835Z,680.63
2018-08-08T09:52:17.834Z,720.00
2018-08-08T09:53:17.832Z,720.00
2018-08-08T09:54:17.828Z,753.75
2018-08-08T09:55:17.824Z,798.75
2018-08-08T09:56:17.865Z,793.13
2018-08-08T09:57:17.809Z,753.75
2018-08-08T09:58:17.810Z,736.88
2018-08-08T09:59:17.803Z,753.75
2018-08-08T10:00:17.803Z,781.88
2018-08-08T10:01:17.797Z,759.38
2018-08-08T10:02:17.791Z,731.25
2018-08-08T10:03:17.792Z,646.88
2018-08-08T10:04:17.783Z,663.75
2018-08-08T10:05:17.776Z,596.25
2018-08-08T10:06:17.784Z,663.75
2018-08-08T10:07:17.771Z,697.50
2018-08-08T10:08:17.770Z,770.63
2018-08-08T10:09:17.764Z,798.75
2018-08-08T10:10:17.757Z,798.75
2018-08-08T10:11:17.754Z,765.00
2018-08-08T10:12:17.837Z,663.75
2018-08-08T10:13:17.750Z,596.25
2018-08-08T10:14:17.741Z,686.25
2018-08-08T10:15:17.741Z,624.38
2018-08-08T10:16:17.741Z,646.88
2018-08-08T10:17:17.742Z,652.50
2018-08-08T10:18:17.750Z,663.75
2018-08-08T10:19:17.729Z,703.13
2018-08-08T10:20:17.721Z,720.00
2018-08-08T10:21:17.716Z,765.00
2018-08-08T10:22:17.709Z,770.63
2018-08-08T10:23:17.709Z,765.00
2018-08-08T10:24:17.706Z,748.13
2018-08-08T10:25:17.716Z,759.38
2018-08-08T10:26:17.713Z,781.88
2018-08-08T10:27:17.703Z,821.25
2018-08-08T10:28:17.696Z,871.88
2018-08-08T10:29:17.690Z,916.88
2018-08-08T10:30:17.691Z,984.38
2018-08-08T10:31:17.693Z,1074.38
2018-08-08T10:32:17.687Z,1175.63
2018-08-08T10:33:17.680Z,1293.75
2018-08-08T10:34:17.680Z,1440.00
2018-08-08T10:35:17.674Z,1591.88
2018-08-08T10:36:17.677Z,1755.00
2018-08-08T10:37:17.677Z,1901.25
2018-08-08T10:38:17.674Z,1923.75
2018-08-08T10:39:17.674Z,1839.38
2018-08-08T10:40:17.667Z,1890.00
2018-08-08T10:41:17.664Z,2193.75
2018-08-08T10:42:17.667Z,2131.88
2018-08-08T10:43:17.658Z,2182.50
2018-08-08T10:44:17.660Z,2165.63
2018-08-08T10:45:17.654Z,2289.38
2018-08-08T10:46:17.651Z,2193.75
2018-08-08T10:47:17.654Z,2283.75
2018-08-08T10:48:17.655Z,2345.63
2018-08-08T10:49:17.659Z,2396.25
2018-08-08T10:50:17.651Z,2368.13
2018-08-08T10:51:17.648Z,2103.75
2018-08-08T10:52:17.645Z,1968.75
2018-08-08T10:53:17.644Z,1884.38
2018-08-08T10:54:17.648Z,2103.75
2018-08-08T10:55:17.648Z,2278.13
2018-08-08T10:56:17.662Z,2266.88
2018-08-08T10:57:17.648Z,2238.75
2018-08-08T10:58:17.638Z,2137.50
2018-08-08T10:59:17.641Z,2053.13
2018-08-08T11:00:17.638Z,2019.38
2018-08-08T11:01:17.638Z,2053.13
2018-08-08T11:02:17.641Z,2008.13
2018-08-08T11:03:17.774Z,2058.75
2018-08-08T11:04:17.641Z,2025.00
2018-08-08T11:05:17.647Z,1147.50
2018-08-08T11:06:17.638Z,1198.13
2018-08-08T11:07:17.638Z,1170.00
2018-08-08T11:08:17.641Z,1125.00
2018-08-08T11:09:17.646Z,2025.00
2018-08-08T11:10:17.643Z,2047.50
2018-08-08T11:11:17.644Z,1963.13
2018-08-08T11:12:17.642Z,2070.00
2018-08-08T11:13:17.644Z,2047.50
2018-08-08T11:14:17.635Z,1749.38
2018-08-08T11:15:17.638Z,1906.88
2018-08-08T11:16:17.635Z,2070.00
2018-08-08T11:17:17.636Z,1985.63
2018-08-08T11:18:17.635Z,2030.63
2018-08-08T11:19:17.642Z,2002.50
2018-08-08T11:20:17.638Z,2148.75
2018-08-08T11:21:17.641Z,2176.88
2018-08-08T11:22:17.641Z,2255.63
2018-08-08T11:23:17.645Z,2356.88
2018-08-08T11:24:17.644Z,2598.75
2018-08-08T11:25:17.641Z,4263.75
2018-08-08T11:26:17.648Z,5220.00
2018-08-08T11:27:17.656Z,4786.88
2018-08-08T11:28:17.645Z,4314.38
2018-08-08T11:29:17.646Z,4381.88
2018-08-08T11:30:17.657Z,4494.38
2018-08-08T11:31:17.657Z,4218.75
2018-08-08T11:32:17.660Z,4033.13
2018-08-08T11:33:17.661Z,4055.63
2018-08-08T11:34:17.661Z,4252.50
2018-08-08T11:35:17.660Z,4336.88
2018-08-08T11:36:17.661Z,4443.75
2018-08-08T11:37:17.668Z,4393.13
2018-08-08T11:38:17.674Z,4246.88
2018-08-08T11:39:17.673Z,4213.13
2018-08-08T11:40:17.680Z,4117.50
2018-08-08T11:41:17.683Z,4320.00
2018-08-08T11:42:17.686Z,4635.00
2018-08-08T11:43:17.683Z,2216.25
2018-08-08T11:44:17.689Z,4483.13
2018-08-08T11:45:17.697Z,4719.38
2018-08-08T11:46:17.692Z,4741.88
2018-08-08T11:47:17.721Z,4702.50
2018-08-08T11:48:17.705Z,4246.88
2018-08-08T11:49:17.711Z,3746.25
2018-08-08T11:50:17.708Z,3735.00
2018-08-08T11:51:17.714Z,3701.25
2018-08-08T11:52:17.721Z,3678.75
2018-08-08T11:53:17.717Z,3909.38
2018-08-08T11:54:17.721Z,4314.38
2018-08-08T11:55:17.731Z,4606.88
2018-08-08T11:56:17.724Z,4455.00
2018-08-08T11:57:17.734Z,4230.00
2018-08-08T11:58:17.737Z,4286.25
2018-08-08T11:59:17.740Z,4246.88
2018-08-08T12:00:17.740Z,4336.88
2018-08-08T12:01:17.750Z,4275.00
2018-08-08T12:02:17.753Z,4325.63
2018-08-08T12:03:17.750Z,4353.75
2018-08-08T12:04:17.760Z,4398.75
2018-08-08T12:05:17.757Z,4376.25
2018-08-08T12:06:17.764Z,4381.88
2018-08-08T12:07:17.816Z,4246.88
2018-08-08T12:08:17.769Z,4393.13
2018-08-08T12:09:17.784Z,2638.13
2018-08-08T12:10:17.783Z,4567.50
2018-08-08T12:11:17.783Z,4528.13
2018-08-08T12:12:17.813Z,4578.75
2018-08-08T12:13:17.796Z,4708.13
2018-08-08T12:14:17.799Z,4837.50
2018-08-08T12:15:17.948Z,4578.75
2018-08-08T12:16:17.809Z,2700.00
2018-08-08T12:17:17.813Z,3521.25
2018-08-08T12:18:17.818Z,4539.38
2018-08-08T12:19:17.824Z,1777.50
2018-08-08T12:20:17.824Z,1687.50
2018-08-08T12:21:17.827Z,1338.75
2018-08-08T12:22:17.833Z,1147.50
2018-08-08T12:23:17.834Z,1119.38
2018-08-08T12:24:17.838Z,4393.13
2018-08-08T12:25:17.840Z,4342.50
2018-08-08T12:26:17.843Z,2199.38
2018-08-08T12:27:17.855Z,4291.88
2018-08-08T12:28:17.853Z,1822.50
2018-08-08T12:29:17.849Z,1816.88
2018-08-08T12:30:17.856Z,4854.38
2018-08-08T12:31:17.857Z,4426.88
2018-08-08T12:32:17.866Z,4336.88
2018-08-08T12:33:17.863Z,2829.38
2018-08-08T12:34:17.885Z,4336.88
2018-08-08T12:35:17.882Z,4685.63
2018-08-08T12:36:17.879Z,4173.75
2018-08-08T12:37:17.879Z,4584.38
2018-08-08T12:38:17.883Z,4657.50
2018-08-08T12:39:17.948Z,3819.38
2018-08-08T12:40:17.933Z,1721.25
2018-08-08T12:41:17.894Z,1873.13